createdAt,value
2023-02-27T00:00:44.710Z,0.00
2023-02-27T00:01:44.823Z,0.00
2023-02-27T00:02:44.766Z,0.00
2023-02-27T00:03:44.762Z,0.00
2023-02-27T00:04:44.608Z,0.00
2023-02-27T00:05:44.654Z,0.00
2023-02-27T00:06:44.538Z,0.00
2023-02-27T00:07:44.478Z,0.00
2023-02-27T00:08:44.709Z,0.00
2023-02-27T00:09:44.586Z,0.00
2023-02-27T00:10:44.553Z,0.00
2023-02-27T00:11:44.630Z,0.00
2023-02-27T00:12:44.532Z,0.00
2023-02-27T00:13:44.724Z,0.00
2023-02-27T00:14:44.603Z,0.00
2023-02-27T00:15:44.542Z,0.00
2023-02-27T00:16:44.553Z,0.00
2023-02-27T00:17:44.640Z,0.00
2023-02-27T00:18:44.503Z,0.00
2023-02-27T00:19:44.492Z,0.00
2023-02-27T00:20:44.479Z,0.00
2023-02-27T00:21:44.379Z,0.00
2023-02-27T00:22:44.499Z,0.00
2023-02-27T00:23:44.458Z,0.00
2023-02-27T00:24:44.442Z,0.00
2023-02-27T00:25:44.517Z,0.00
2023-02-27T00:26:44.431Z,0.00
2023-02-27T00:27:44.495Z,0.00
2023-02-27T00:28:44.488Z,0.00
2023-02-27T00:29:44.394Z,0.00
2023-02-27T00:30:44.395Z,0.00
2023-02-27T00:31:44.448Z,0.00
2023-02-27T00:32:44.448Z,0.00
2023-02-27T00:33:44.342Z,0.00
2023-02-27T00:34:44.404Z,0.00
2023-02-27T00:35:44.209Z,0.00
2023-02-27T00:36:44.375Z,0.00
2023-02-27T00:37:44.428Z,0.00
2023-02-27T00:38:44.319Z,0.00
2023-02-27T00:39:44.287Z,0.00
2023-02-27T00:40:44.347Z,0.00
2023-02-27T00:41:44.334Z,0.00
2023-02-27T00:42:44.298Z,0.00
2023-02-27T00:43:44.379Z,0.00
2023-02-27T00:44:44.341Z,0.00
2023-02-27T00:45:44.198Z,0.00
2023-02-27T00:46:44.337Z,0.00
2023-02-27T00:47:44.271Z,0.00
2023-02-27T00:48:44.068Z,0.00
2023-02-27T00:49:44.307Z,0.00
2023-02-27T00:50:44.292Z,0.00
2023-02-27T00:51:44.344Z,0.00
2023-02-27T00:52:44.312Z,0.00
2023-02-27T00:53:44.199Z,0.00
2023-02-27T00:54:44.331Z,0.00
2023-02-27T00:55:44.145Z,0.00
2023-02-27T00:56:44.203Z,0.00
2023-02-27T00:57:44.015Z,0.00
2023-02-27T00:58:44.164Z,0.00
2023-02-27T00:59:44.300Z,0.00
2023-02-27T01:00:44.122Z,0.00
2023-02-27T01:01:44.141Z,0.00
2023-02-27T01:02:44.205Z,0.00
2023-02-27T01:03:44.047Z,0.00
2023-02-27T01:04:43.959Z,0.00
2023-02-27T01:05:44.098Z,0.00
2023-02-27T01:06:44.110Z,0.00
2023-02-27T01:07:44.018Z,0.00
2023-02-27T01:08:44.071Z,0.00
2023-02-27T01:09:44.100Z,0.00
2023-02-27T01:10:44.044Z,0.00
2023-02-27T01:11:43.981Z,0.00
2023-02-27T01:12:43.986Z,0.00
2023-02-27T01:13:43.973Z,0.00
2023-02-27T01:14:43.876Z,0.00
2023-02-27T01:15:44.025Z,0.00
2023-02-27T01:16:43.976Z,0.00
2023-02-27T01:17:43.929Z,0.00
2023-02-27T01:18:43.977Z,0.00
2023-02-27T01:19:43.948Z,0.00
2023-02-27T01:20:43.994Z,0.00
2023-02-27T01:21:43.895Z,0.00
2023-02-27T01:22:43.954Z,0.00
2023-02-27T01:23:43.926Z,0.00
2023-02-27T01:24:43.896Z,0.00
2023-02-27T01:25:43.987Z,0.00
2023-02-27T01:26:43.957Z,0.00
2023-02-27T01:27:43.946Z,0.00
2023-02-27T01:28:43.922Z,0.00
2023-02-27T01:29:43.906Z,0.00
2023-02-27T01:30:43.918Z,0.00
2023-02-27T01:31:43.878Z,0.00
2023-02-27T01:32:43.842Z,0.00
2023-02-27T01:33:43.823Z,0.00
2023-02-27T01:34:43.927Z,0.00
2023-02-27T01:35:43.813Z,0.00
2023-02-27T01:36:43.948Z,0.00
2023-02-27T01:37:43.628Z,0.00
2023-02-27T01:38:43.743Z,0.00
2023-02-27T01:39:43.732Z,0.00
2023-02-27T01:40:43.739Z,0.00
2023-02-27T01:41:43.817Z,0.00
2023-02-27T01:42:43.726Z,0.00
2023-02-27T01:43:43.720Z,0.00
2023-02-27T01:44:43.704Z,0.00
2023-02-27T01:45:43.746Z,0.00
2023-02-27T01:46:43.794Z,0.00
2023-02-27T01:47:43.511Z,0.00
2023-02-27T01:48:43.686Z,0.00
2023-02-27T01:49:43.673Z,0.00
2023-02-27T01:50:43.726Z,0.00
2023-02-27T01:51:43.740Z,0.00
2023-02-27T01:52:43.565Z,0.00
2023-02-27T01:53:43.645Z,0.00
2023-02-27T01:54:43.672Z,0.00
2023-02-27T01:55:43.640Z,0.00
2023-02-27T01:56:43.706Z,0.00
2023-02-27T01:57:43.620Z,0.00
2023-02-27T01:58:43.539Z,0.00
2023-02-27T01:59:43.542Z,0.00
2023-02-27T02:00:43.547Z,0.00
2023-02-27T02:01:43.555Z,0.00
2023-02-27T02:02:43.629Z,0.00
2023-02-27T02:03:43.359Z,0.00
2023-02-27T02:04:43.346Z,0.00
2023-02-27T02:05:43.518Z,0.00
2023-02-27T02:06:43.514Z,0.00
2023-02-27T02:07:43.602Z,0.00
2023-02-27T02:08:43.583Z,0.00
2023-02-27T02:09:43.483Z,0.00
2023-02-27T02:10:43.474Z,0.00
2023-02-27T02:11:43.471Z,0.00
2023-02-27T02:12:43.555Z,0.00
2023-02-27T02:13:43.534Z,0.00
2023-02-27T02:14:43.436Z,0.00
2023-02-27T02:15:43.410Z,0.00
2023-02-27T02:16:43.439Z,0.00
2023-02-27T02:17:43.366Z,0.00
2023-02-27T02:18:43.420Z,0.00
2023-02-27T02:19:43.403Z,0.00
2023-02-27T02:20:43.383Z,0.00
2023-02-27T02:21:43.381Z,0.00
2023-02-27T02:22:43.290Z,0.00
2023-02-27T02:23:43.419Z,0.00
2023-02-27T02:24:43.332Z,0.00
2023-02-27T02:25:43.136Z,0.00
2023-02-27T02:26:43.311Z,0.00
2023-02-27T02:27:43.291Z,0.00
2023-02-27T02:28:43.240Z,0.00
2023-02-27T02:29:43.259Z,0.00
2023-02-27T02:30:43.347Z,0.00
2023-02-27T02:31:43.483Z,0.00
2023-02-27T02:32:43.260Z,0.00
2023-02-27T02:33:43.352Z,0.00
2023-02-27T02:34:43.199Z,0.00
2023-02-27T02:35:43.215Z,0.00
2023-02-27T02:36:43.214Z,0.00
2023-02-27T02:37:43.206Z,0.00
2023-02-27T02:38:43.204Z,0.00
2023-02-27T02:39:43.275Z,0.00
2023-02-27T02:40:43.180Z,0.00
2023-02-27T02:41:43.147Z,0.00
2023-02-27T02:42:43.117Z,0.00
2023-02-27T02:43:43.181Z,0.00
2023-02-27T02:44:43.189Z,0.00
2023-02-27T02:45:43.112Z,0.00
2023-02-27T02:46:43.102Z,0.00
2023-02-27T02:47:43.094Z,0.00
2023-02-27T02:48:42.979Z,0.00
2023-02-27T02:49:43.160Z,0.00
2023-02-27T02:50:43.096Z,0.00
2023-02-27T02:51:43.097Z,0.00
2023-02-27T02:52:43.104Z,0.00
2023-02-27T02:53:43.149Z,0.00
2023-02-27T02:54:43.125Z,0.00
2023-02-27T02:55:43.004Z,0.00
2023-02-27T02:56:42.984Z,0.00
2023-02-27T02:57:42.853Z,0.00
2023-02-27T02:58:42.923Z,0.00
2023-02-27T02:59:43.023Z,0.00
2023-02-27T03:00:43.009Z,0.00
2023-02-27T03:01:43.008Z,0.00
2023-02-27T03:02:42.997Z,0.00
2023-02-27T03:03:42.982Z,0.00
2023-02-27T03:04:43.028Z,0.00
2023-02-27T03:05:42.988Z,0.00
2023-02-27T03:06:42.986Z,0.00
2023-02-27T03:07:42.813Z,0.00
2023-02-27T03:08:42.937Z,0.00
2023-02-27T03:09:42.702Z,0.00
2023-02-27T03:10:42.835Z,0.00
2023-02-27T03:11:42.851Z,0.00
2023-02-27T03:12:42.862Z,0.00
2023-02-27T03:13:42.850Z,0.00
2023-02-27T03:14:42.931Z,0.00
2023-02-27T03:15:42.968Z,0.00
2023-02-27T03:16:42.840Z,0.00
2023-02-27T03:17:42.911Z,0.00
2023-02-27T03:18:42.829Z,0.00
2023-02-27T03:19:42.830Z,0.00
2023-02-27T03:20:42.870Z,0.00
2023-02-27T03:21:42.835Z,0.00
2023-02-27T03:22:42.753Z,0.00
2023-02-27T03:23:42.754Z,0.00
2023-02-27T03:24:42.743Z,0.00
2023-02-27T03:25:42.728Z,0.00
2023-02-27T03:26:42.798Z,0.00
2023-02-27T03:27:42.720Z,0.00
2023-02-27T03:28:42.562Z,0.00
2023-02-27T03:29:42.700Z,0.00
2023-02-27T03:30:42.762Z,0.00
2023-02-27T03:31:42.940Z,0.00
2023-02-27T03:32:42.746Z,0.00
2023-02-27T03:33:42.550Z,0.00
2023-02-27T03:34:42.674Z,0.00
2023-02-27T03:35:42.678Z,0.00
2023-02-27T03:36:42.670Z,0.00
2023-02-27T03:37:42.757Z,0.00
2023-02-27T03:38:42.681Z,0.00
2023-02-27T03:39:42.631Z,0.00
2023-02-27T03:40:42.606Z,0.00
2023-02-27T03:41:42.721Z,0.00
2023-02-27T03:42:42.702Z,0.00
2023-02-27T03:43:42.633Z,0.00
2023-02-27T03:44:42.642Z,0.00
2023-02-27T03:45:42.585Z,0.00
2023-02-27T03:46:42.632Z,0.00
2023-02-27T03:47:42.695Z,0.00
2023-02-27T03:48:42.541Z,0.00
2023-02-27T03:49:42.553Z,0.00
2023-02-27T03:50:42.486Z,0.00
2023-02-27T03:51:42.562Z,0.00
2023-02-27T03:52:42.382Z,0.00
2023-02-27T03:53:42.377Z,0.00
2023-02-27T03:54:42.546Z,0.00
2023-02-27T03:55:42.490Z,0.00
2023-02-27T03:56:42.485Z,0.00
2023-02-27T03:57:42.562Z,0.00
2023-02-27T03:58:42.414Z,0.00
2023-02-27T03:59:42.438Z,0.00
2023-02-27T04:00:42.487Z,0.00
2023-02-27T04:01:42.559Z,0.00
2023-02-27T04:02:42.469Z,0.00
2023-02-27T04:03:42.474Z,0.00
2023-02-27T04:04:42.441Z,0.00
2023-02-27T04:05:42.438Z,0.00
2023-02-27T04:06:42.362Z,0.00
2023-02-27T04:07:42.366Z,0.00
2023-02-27T04:08:42.458Z,0.00
2023-02-27T04:09:42.204Z,0.00
2023-02-27T04:10:42.460Z,0.00
2023-02-27T04:11:42.352Z,0.00
2023-02-27T04:12:43.808Z,0.00
2023-02-27T04:13:42.335Z,0.00
2023-02-27T04:14:42.405Z,0.00
2023-02-27T04:15:42.324Z,0.00
2023-02-27T04:16:42.324Z,0.00
2023-02-27T04:17:42.311Z,0.00
2023-02-27T04:18:42.378Z,0.00
2023-02-27T04:19:42.289Z,0.00
2023-02-27T04:20:42.285Z,0.00
2023-02-27T04:21:42.280Z,0.00
2023-02-27T04:22:42.211Z,0.00
2023-02-27T04:23:42.216Z,0.00
2023-02-27T04:24:42.041Z,0.00
2023-02-27T04:25:42.064Z,0.00
2023-02-27T04:26:41.997Z,0.00
2023-02-27T04:27:42.037Z,0.00
2023-02-27T04:28:41.973Z,0.00
2023-02-27T04:29:41.979Z,0.00
2023-02-27T04:30:42.025Z,0.00
2023-02-27T04:31:42.114Z,0.00
2023-02-27T04:32:42.078Z,0.00
2023-02-27T04:33:41.922Z,0.00
2023-02-27T04:34:42.216Z,0.00
2023-02-27T04:35:41.982Z,0.00
2023-02-27T04:36:41.935Z,0.00
2023-02-27T04:37:42.118Z,0.00
2023-02-27T04:38:41.958Z,0.00
2023-02-27T04:39:42.162Z,0.00
2023-02-27T04:40:41.931Z,0.00
2023-02-27T04:41:42.023Z,0.00
2023-02-27T04:42:42.126Z,0.00
2023-02-27T04:43:41.997Z,0.00
2023-02-27T04:44:41.823Z,0.00
2023-02-27T04:45:42.100Z,0.00
2023-02-27T04:46:42.045Z,0.00
2023-02-27T04:47:42.004Z,0.00
2023-02-27T04:48:41.854Z,0.00
2023-02-27T04:49:41.987Z,0.00
2023-02-27T04:50:42.012Z,0.00
2023-02-27T04:51:42.015Z,0.00
2023-02-27T04:52:42.052Z,0.00
2023-02-27T04:53:41.958Z,0.00
2023-02-27T04:54:41.749Z,0.00
2023-02-27T04:55:41.937Z,0.00
2023-02-27T04:56:41.954Z,0.00
2023-02-27T04:57:41.996Z,0.00
2023-02-27T04:58:41.712Z,0.00
2023-02-27T04:59:41.692Z,0.00
2023-02-27T05:00:41.886Z,0.00
2023-02-27T05:01:41.885Z,0.00
2023-02-27T05:02:41.913Z,0.00
2023-02-27T05:03:41.902Z,0.00
2023-02-27T05:04:41.856Z,0.00
2023-02-27T05:05:41.825Z,0.00
2023-02-27T05:06:41.823Z,0.00
2023-02-27T05:07:41.659Z,0.00
2023-02-27T05:08:41.625Z,0.00
2023-02-27T05:09:41.929Z,0.00
2023-02-27T05:10:41.770Z,0.00
2023-02-27T05:11:41.717Z,0.00
2023-02-27T05:12:41.744Z,0.00
2023-02-27T05:13:41.782Z,0.00
2023-02-27T05:14:41.693Z,0.00
2023-02-27T05:15:41.779Z,0.00
2023-02-27T05:16:41.786Z,0.00
2023-02-27T05:17:41.746Z,0.00
2023-02-27T05:18:41.546Z,0.00
2023-02-27T05:19:41.817Z,0.00
2023-02-27T05:20:41.692Z,0.00
2023-02-27T05:21:41.709Z,0.00
2023-02-27T05:22:41.723Z,0.00
2023-02-27T05:23:41.648Z,0.00
2023-02-27T05:24:41.750Z,0.00
2023-02-27T05:25:41.689Z,0.00
2023-02-27T05:26:41.634Z,0.00
2023-02-27T05:27:41.631Z,0.00
2023-02-27T05:28:43.046Z,0.00
2023-02-27T05:29:41.424Z,0.00
2023-02-27T05:30:41.394Z,0.00
2023-02-27T05:31:41.481Z,1.00
2023-02-27T05:32:41.591Z,0.00
2023-02-27T05:33:41.538Z,1.00
2023-02-27T05:34:41.571Z,1.00
2023-02-27T05:35:41.549Z,1.00
2023-02-27T05:36:41.568Z,0.00
2023-02-27T05:37:41.342Z,0.00
2023-02-27T05:38:41.510Z,2.00
2023-02-27T05:39:41.573Z,1.00
2023-02-27T05:40:41.438Z,1.00
2023-02-27T05:41:41.331Z,2.00
2023-02-27T05:42:41.442Z,1.00
2023-02-27T05:43:41.429Z,1.00
2023-02-27T05:44:41.829Z,3.00
2023-02-27T05:45:41.536Z,3.00
2023-02-27T05:46:41.391Z,2.00
2023-02-27T05:47:41.366Z,3.00
2023-02-27T05:48:41.396Z,4.00
2023-02-27T05:49:41.428Z,5.00
2023-02-27T05:50:41.472Z,6.00
2023-02-27T05:51:41.284Z,8.00
2023-02-27T05:52:41.336Z,8.00
2023-02-27T05:53:41.280Z,12.00
2023-02-27T05:54:41.323Z,13.00
2023-02-27T05:55:41.364Z,14.00
2023-02-27T05:56:41.244Z,18.00
2023-02-27T05:57:41.267Z,20.00
2023-02-27T05:58:41.279Z,29.00
2023-02-27T05:59:41.227Z,39.00
2023-02-27T06:00:41.316Z,48.00
2023-02-27T06:01:41.194Z,52.00
2023-02-27T06:02:41.240Z,62.00
2023-02-27T06:03:41.262Z,69.00
2023-02-27T06:04:41.174Z,75.00
2023-02-27T06:05:41.298Z,87.00
2023-02-27T06:06:41.583Z,90.00
2023-02-27T06:07:41.061Z,95.00
2023-02-27T06:08:41.073Z,102.00
2023-02-27T06:09:41.165Z,118.00
2023-02-27T06:10:41.011Z,125.00
2023-02-27T06:11:41.284Z,140.00
2023-02-27T06:12:41.124Z,146.00
2023-02-27T06:13:42.187Z,159.00
2023-02-27T06:14:41.129Z,185.00
2023-02-27T06:15:41.114Z,220.00
2023-02-27T06:16:41.194Z,262.00
2023-02-27T06:17:40.963Z,303.00
2023-02-27T06:18:41.104Z,346.00
2023-02-27T06:19:41.111Z,398.00
2023-02-27T06:20:41.123Z,452.00
2023-02-27T06:21:41.149Z,495.00
2023-02-27T06:22:40.886Z,534.00
2023-02-27T06:23:40.885Z,603.00
2023-02-27T06:24:40.858Z,655.00
2023-02-27T06:25:40.970Z,714.00
2023-02-27T06:26:40.992Z,786.00
2023-02-27T06:27:41.020Z,821.00
2023-02-27T06:28:41.110Z,691.00
2023-02-27T06:29:40.973Z,433.00
2023-02-27T06:30:41.033Z,617.00
2023-02-27T06:31:40.995Z,1088.00
2023-02-27T06:32:40.999Z,2155.00
2023-02-27T06:33:41.019Z,2624.00
2023-02-27T06:34:40.951Z,2696.00
2023-02-27T06:35:41.013Z,5479.00
2023-02-27T06:36:40.759Z,9611.00
2023-02-27T06:37:40.849Z,3441.00
2023-02-27T06:38:40.851Z,1584.00
2023-02-27T06:39:40.884Z,1565.00
2023-02-27T06:40:40.894Z,1665.00
2023-02-27T06:41:40.927Z,1779.00
2023-02-27T06:42:40.926Z,1752.00
2023-02-27T06:43:40.816Z,1801.00
2023-02-27T06:44:40.844Z,1899.00
2023-02-27T06:45:40.774Z,1885.00
2023-02-27T06:46:40.830Z,2201.00
2023-02-27T06:47:40.839Z,2108.00
2023-02-27T06:48:40.791Z,1628.00
2023-02-27T06:49:40.757Z,3459.00
2023-02-27T06:50:40.790Z,2689.00
2023-02-27T06:51:40.820Z,2799.00
2023-02-27T06:52:40.860Z,2875.00
2023-02-27T06:53:40.888Z,2940.00
2023-02-27T06:54:40.749Z,3026.00
2023-02-27T06:55:40.784Z,3123.00
2023-02-27T06:56:40.596Z,3213.00
2023-02-27T06:57:40.757Z,3306.00
2023-02-27T06:58:40.521Z,3385.00
2023-02-27T06:59:40.574Z,3458.00
2023-02-27T07:00:40.715Z,3534.00
2023-02-27T07:01:40.711Z,3617.00
2023-02-27T07:02:40.694Z,3666.00
2023-02-27T07:03:40.766Z,3710.00
2023-02-27T07:04:40.688Z,3742.00
2023-02-27T07:05:40.662Z,3840.00
2023-02-27T07:07:34.898Z,4005.00
2023-02-27T07:07:42.274Z,4272.00
2023-02-27T07:08:54.431Z,4685.00
2023-02-27T07:09:40.740Z,4906.00
2023-02-27T07:10:40.568Z,5327.00
2023-02-27T07:11:40.582Z,5339.00
2023-02-27T07:12:40.381Z,4485.00
2023-02-27T07:13:40.428Z,4076.00
2023-02-27T07:14:40.385Z,3694.00
2023-02-27T07:15:40.406Z,3324.00
2023-02-27T07:16:40.327Z,3373.00
2023-02-27T07:17:40.353Z,3470.00
2023-02-27T07:18:40.361Z,3305.00
2023-02-27T07:19:40.360Z,3302.00
2023-02-27T07:20:40.373Z,3703.00
2023-02-27T07:21:40.292Z,3888.00
2023-02-27T07:22:40.289Z,4018.00
2023-02-27T07:23:40.315Z,4005.00
2023-02-27T07:24:40.284Z,4153.00
2023-02-27T07:25:40.561Z,3753.00
2023-02-27T07:26:40.574Z,4397.00
2023-02-27T07:27:40.244Z,13694.00
2023-02-27T07:28:40.372Z,83225.00
2023-02-27T07:29:40.592Z,80567.00
2023-02-27T07:30:40.271Z,79480.00
2023-02-27T07:31:40.401Z,60414.00
2023-02-27T07:32:40.160Z,11182.00
2023-02-27T07:33:40.414Z,10421.00
2023-02-27T07:34:40.429Z,8634.00
2023-02-27T07:35:40.475Z,3281.00
2023-02-27T07:36:40.320Z,17571.00
2023-02-27T07:37:40.176Z,3400.00
2023-02-27T07:38:40.148Z,18784.00
2023-02-27T07:39:40.468Z,7101.00
2023-02-27T07:40:40.172Z,7347.00
2023-02-27T07:41:40.074Z,9263.00
2023-02-27T07:42:40.100Z,7737.00
2023-02-27T07:43:40.079Z,6588.00
2023-02-27T07:44:40.060Z,7774.00
2023-02-27T07:45:40.348Z,6258.00
2023-02-27T07:46:40.263Z,5379.00
2023-02-27T07:47:40.330Z,7354.00
2023-02-27T07:48:40.017Z,6613.00
2023-02-27T07:49:39.994Z,5723.00
2023-02-27T07:50:40.240Z,7033.00
2023-02-27T07:51:40.066Z,5330.00
2023-02-27T07:52:40.019Z,61536.00
2023-02-27T07:53:39.947Z,11675.00
2023-02-27T07:54:40.159Z,11093.00
2023-02-27T07:55:40.361Z,9431.00
2023-02-27T07:56:39.985Z,13732.00
2023-02-27T07:57:40.087Z,12622.00
2023-02-27T07:58:39.937Z,9917.00
2023-02-27T07:59:39.928Z,12290.00
2023-02-27T08:00:39.928Z,10979.00
2023-02-27T08:01:40.096Z,9882.00
2023-02-27T08:02:39.985Z,11060.00
2023-02-27T08:03:40.177Z,10844.00
2023-02-27T08:04:40.288Z,9776.00
2023-02-27T08:05:39.851Z,12063.00
2023-02-27T08:06:40.277Z,7779.00
2023-02-27T08:07:40.002Z,14514.00
2023-02-27T08:08:40.001Z,9779.00
2023-02-27T08:09:39.825Z,10399.00
2023-02-27T08:10:39.831Z,10406.00
2023-02-27T08:11:39.841Z,10971.00
2023-02-27T08:12:39.829Z,7554.00
2023-02-27T08:13:59.501Z,80212.00
2023-02-27T08:14:40.100Z,63423.00
2023-02-27T08:15:39.817Z,20374.00
2023-02-27T08:16:40.210Z,9079.00
2023-02-27T08:17:40.116Z,22234.00
2023-02-27T08:18:39.775Z,5557.00
2023-02-27T08:19:39.827Z,10912.00
2023-02-27T08:20:39.825Z,75850.00
2023-02-27T08:21:39.833Z,80663.00
2023-02-27T08:22:39.832Z,76104.00
2023-02-27T08:23:41.745Z,74448.00
2023-02-27T08:24:39.713Z,74615.00
2023-02-27T08:25:39.793Z,77012.00
2023-02-27T08:26:39.653Z,75539.00
2023-02-27T08:27:39.730Z,74453.00
2023-02-27T08:28:39.638Z,74327.00
2023-02-27T08:29:39.680Z,65148.00
2023-02-27T08:30:39.777Z,17897.00
2023-02-27T08:31:39.946Z,26173.00
2023-02-27T08:32:39.952Z,78794.00
2023-02-27T08:33:39.687Z,81311.00
2023-02-27T08:34:39.541Z,78984.00
2023-02-27T08:35:39.994Z,71344.00
2023-02-27T08:36:39.667Z,35888.00
2023-02-27T08:37:39.644Z,27571.00
2023-02-27T08:38:39.631Z,12025.00
2023-02-27T08:39:39.860Z,18240.00
2023-02-27T08:40:39.809Z,80171.00
2023-02-27T08:41:39.754Z,75472.00
2023-02-27T08:42:39.688Z,76591.00
2023-02-27T08:43:39.628Z,81490.00
2023-02-27T08:44:39.816Z,81890.00
2023-02-27T08:45:39.790Z,77183.00
2023-02-27T08:46:39.719Z,80979.00
2023-02-27T08:47:39.666Z,80565.00
2023-02-27T08:48:39.611Z,79747.00
2023-02-27T08:49:39.573Z,82014.00
2023-02-27T08:50:39.770Z,79732.00
2023-02-27T08:51:39.596Z,76802.00
2023-02-27T08:52:39.533Z,81387.00
2023-02-27T08:53:39.601Z,82138.00
2023-02-27T08:54:39.543Z,78726.00
2023-02-27T08:55:39.498Z,79206.00
2023-02-27T08:56:39.668Z,78489.00
2023-02-27T08:57:39.623Z,79684.00
2023-02-27T08:58:39.614Z,81012.00
2023-02-27T08:59:39.595Z,82159.00
2023-02-27T09:00:39.632Z,78392.00
2023-02-27T09:01:39.640Z,78354.00
2023-02-27T09:02:39.539Z,80702.00
2023-02-27T09:03:39.425Z,80249.00
2023-02-27T09:04:39.481Z,82373.00
2023-02-27T09:05:39.527Z,80638.00
2023-02-27T09:06:39.449Z,79605.00
2023-02-27T09:07:39.475Z,81916.00
2023-02-27T09:08:39.507Z,80881.00
2023-02-27T09:09:39.216Z,75864.00
2023-02-27T09:10:39.318Z,78783.00
2023-02-27T09:11:39.217Z,82126.00
2023-02-27T09:12:39.240Z,79220.00
2023-02-27T09:13:39.170Z,74981.00
2023-02-27T09:14:39.367Z,80987.00
2023-02-27T09:15:39.611Z,76945.00
2023-02-27T09:16:39.209Z,69023.00
2023-02-27T09:17:39.192Z,32061.00
2023-02-27T09:18:39.157Z,17735.00
2023-02-27T09:19:39.163Z,10382.00
2023-02-27T09:20:39.122Z,17596.00
2023-02-27T09:21:39.148Z,81002.00
2023-02-27T09:22:39.156Z,77794.00
2023-02-27T09:23:39.179Z,80430.00
2023-02-27T09:24:39.533Z,79025.00
2023-02-27T09:25:39.147Z,76613.00
2023-02-27T09:26:45.385Z,75548.00
2023-02-27T09:27:39.068Z,70967.00
2023-02-27T09:28:39.070Z,36328.00
2023-02-27T09:29:39.041Z,34055.00
2023-02-27T09:30:39.085Z,83685.00
2023-02-27T09:31:39.072Z,78925.00
2023-02-27T09:32:39.088Z,78022.00
2023-02-27T09:33:39.246Z,78210.00
2023-02-27T09:34:39.014Z,76880.00
2023-02-27T09:35:39.038Z,75485.00
2023-02-27T09:36:39.001Z,82477.00
2023-02-27T09:37:38.977Z,78764.00
2023-02-27T09:38:41.238Z,81495.00
2023-02-27T09:39:38.972Z,80423.00
2023-02-27T09:40:38.914Z,82941.00
2023-02-27T09:41:39.062Z,73236.00
2023-02-27T09:42:38.940Z,82981.00
2023-02-27T09:43:38.981Z,78916.00
2023-02-27T09:44:46.545Z,75572.00
2023-02-27T09:45:39.012Z,79861.00
2023-02-27T09:46:38.865Z,76495.00
2023-02-27T09:47:39.285Z,74242.00
2023-02-27T09:48:39.246Z,72618.00
2023-02-27T09:49:39.198Z,65571.00
2023-02-27T09:50:39.153Z,25210.00
2023-02-27T09:51:39.106Z,23439.00
2023-02-27T09:52:39.048Z,28856.00
2023-02-27T09:53:39.112Z,21211.00
2023-02-27T09:54:39.038Z,23844.00
2023-02-27T09:55:38.955Z,18824.00
2023-02-27T09:56:39.019Z,18827.00
2023-02-27T09:57:39.015Z,17587.00
2023-02-27T09:58:38.988Z,24153.00
2023-02-27T09:59:38.972Z,19901.00
2023-02-27T10:00:38.888Z,12938.00
2023-02-27T10:01:38.963Z,21427.00
2023-02-27T10:02:39.111Z,7057.00
2023-02-27T10:03:39.036Z,65123.00
2023-02-27T10:04:39.053Z,9360.00
2023-02-27T10:05:38.886Z,68773.00
2023-02-27T10:06:38.956Z,9798.00
2023-02-27T10:07:39.010Z,80904.00
2023-02-27T10:08:39.057Z,78834.00
2023-02-27T10:09:38.816Z,68996.00
2023-02-27T10:10:38.844Z,18980.00
2023-02-27T10:11:38.892Z,82779.00
2023-02-27T10:12:38.659Z,80889.00
2023-02-27T10:13:38.959Z,81819.00
2023-02-27T10:14:38.650Z,79833.00
2023-02-27T10:15:38.738Z,78607.00
2023-02-27T10:16:38.868Z,79527.00
2023-02-27T10:17:38.607Z,59723.00
2023-02-27T10:18:38.747Z,13712.00
2023-02-27T10:19:38.597Z,13647.00
2023-02-27T10:20:38.537Z,3936.00
2023-02-27T10:21:38.726Z,17665.00
2023-02-27T10:22:38.689Z,80545.00
2023-02-27T10:23:38.548Z,80431.00
2023-02-27T10:24:38.654Z,58627.00
2023-02-27T10:25:38.659Z,3564.00
2023-02-27T10:26:38.673Z,8422.00
2023-02-27T10:27:38.681Z,77324.00
2023-02-27T10:28:38.676Z,77822.00
2023-02-27T10:29:38.669Z,76567.00
2023-02-27T10:30:38.615Z,77299.00
2023-02-27T10:31:38.673Z,76780.00
2023-02-27T10:32:38.671Z,78636.00
2023-02-27T10:33:38.564Z,78400.00
2023-02-27T10:34:38.558Z,79900.00
2023-02-27T10:35:38.717Z,81165.00
2023-02-27T10:36:38.572Z,79567.00
2023-02-27T10:37:38.567Z,78634.00
2023-02-27T10:38:38.686Z,76896.00
2023-02-27T10:39:38.332Z,71006.00
2023-02-27T10:40:38.698Z,37798.00
2023-02-27T10:41:39.950Z,24905.00
2023-02-27T10:42:40.127Z,17442.00
2023-02-27T10:43:38.464Z,29151.00
2023-02-27T10:44:38.473Z,75504.00
2023-02-27T10:45:39.033Z,76411.00
2023-02-27T10:46:38.588Z,76817.00
2023-02-27T10:47:38.388Z,75902.00
2023-02-27T10:48:38.506Z,75571.00
2023-02-27T10:49:38.539Z,75831.00
2023-02-27T10:50:38.434Z,77254.00
2023-02-27T10:51:38.737Z,78703.00
2023-02-27T10:52:38.242Z,80872.00
2023-02-27T10:53:38.398Z,67427.00
2023-02-27T10:54:38.299Z,25941.00
2023-02-27T10:55:38.231Z,4835.00
2023-02-27T10:56:38.277Z,74063.00
2023-02-27T10:57:38.196Z,75760.00
2023-02-27T10:58:38.175Z,73609.00
2023-02-27T10:59:38.142Z,73864.00
2023-02-27T11:00:38.525Z,74237.00
2023-02-27T11:01:38.345Z,75132.00
2023-02-27T11:02:38.348Z,75037.00
2023-02-27T11:03:40.610Z,73474.00
2023-02-27T11:04:38.200Z,75832.00
2023-02-27T11:05:38.098Z,75044.00
2023-02-27T11:06:38.124Z,74410.00
2023-02-27T11:07:38.079Z,70426.00
2023-02-27T11:08:38.257Z,32856.00
2023-02-27T11:09:38.273Z,74495.00
2023-02-27T11:10:38.264Z,75636.00
2023-02-27T11:11:38.284Z,78609.00
2023-02-27T11:12:38.070Z,74769.00
2023-02-27T11:13:38.086Z,71635.00
2023-02-27T11:14:38.109Z,72290.00
2023-02-27T11:15:38.269Z,58759.00
2023-02-27T11:16:38.161Z,4884.00
2023-02-27T11:17:37.984Z,75388.00
2023-02-27T11:18:38.192Z,70533.00
2023-02-27T11:19:38.099Z,37484.00
2023-02-27T11:20:38.124Z,72033.00
2023-02-27T11:21:37.976Z,79615.00
2023-02-27T11:22:38.074Z,76104.00
2023-02-27T11:23:38.096Z,65876.00
2023-02-27T11:24:38.106Z,33070.00
2023-02-27T11:25:37.919Z,32388.00
2023-02-27T11:26:37.979Z,27933.00
2023-02-27T11:27:38.140Z,26019.00
2023-02-27T11:28:38.132Z,26238.00
2023-02-27T11:29:38.125Z,22811.00
2023-02-27T11:30:38.145Z,28784.00
2023-02-27T11:31:38.249Z,4047.00
2023-02-27T11:32:38.212Z,33205.00
2023-02-27T11:33:37.823Z,40314.00
2023-02-27T11:34:38.036Z,38508.00
2023-02-27T11:35:37.881Z,33113.00
2023-02-27T11:36:37.795Z,72092.00
2023-02-27T11:37:37.821Z,35769.00
2023-02-27T11:38:37.800Z,37730.00
2023-02-27T11:39:37.866Z,31980.00
2023-02-27T11:40:37.761Z,30050.00
2023-02-27T11:41:37.741Z,35441.00
2023-02-27T11:42:38.051Z,31857.00
2023-02-27T11:43:37.756Z,33958.00
2023-02-27T11:44:49.705Z,30951.00
2023-02-27T11:46:04.920Z,34233.00
2023-02-27T11:46:48.531Z,33690.00
2023-02-27T11:47:37.850Z,35432.00
2023-02-27T11:48:38.035Z,29294.00
2023-02-27T11:49:37.670Z,23072.00
2023-02-27T11:50:37.809Z,80251.00
2023-02-27T11:51:37.908Z,79192.00
2023-02-27T11:52:37.836Z,71906.00
2023-02-27T11:53:37.684Z,41912.00
2023-02-27T11:54:37.837Z,17454.00
2023-02-27T11:55:37.855Z,77436.00
2023-02-27T11:56:37.631Z,76288.00
2023-02-27T11:57:37.749Z,70284.00
2023-02-27T11:58:37.590Z,32629.00
2023-02-27T11:59:37.905Z,21833.00
2023-02-27T12:00:37.746Z,15384.00
2023-02-27T12:01:37.728Z,18700.00
2023-02-27T12:02:39.332Z,38681.00
2023-02-27T12:03:37.768Z,36645.00
2023-02-27T12:04:37.875Z,26433.00
2023-02-27T12:05:37.688Z,30315.00
2023-02-27T12:06:37.750Z,27376.00
2023-02-27T12:07:37.803Z,16995.00
2023-02-27T12:08:37.861Z,10335.00
2023-02-27T12:09:37.911Z,9152.00
2023-02-27T12:10:37.705Z,8627.00
2023-02-27T12:11:37.757Z,8343.00
2023-02-27T12:12:37.487Z,7882.00
2023-02-27T12:13:37.852Z,7332.00
2023-02-27T12:14:37.657Z,7800.00
2023-02-27T12:15:37.439Z,7551.00
2023-02-27T12:16:37.660Z,7605.00
2023-02-27T12:17:37.423Z,7714.00
2023-02-27T12:18:37.644Z,7919.00
2023-02-27T12:19:37.650Z,8394.00
2023-02-27T12:20:37.634Z,7583.00
2023-02-27T12:21:37.676Z,8310.00
2023-02-27T12:22:37.475Z,8026.00
2023-02-27T12:23:37.504Z,8275.00
2023-02-27T12:24:37.707Z,7888.00
2023-02-27T12:25:37.560Z,7720.00
2023-02-27T12:26:37.460Z,7683.00
2023-02-27T12:27:37.587Z,7678.00
2023-02-27T12:28:37.474Z,7931.00
2023-02-27T12:29:37.601Z,8012.00
2023-02-27T12:30:37.613Z,7224.00
2023-02-27T12:31:37.474Z,7357.00